createdAt,value
2018-07-26T00:00:21.296Z,20.60
2018-07-26T00:02:49.467Z,20.70
2018-07-26T00:05:17.696Z,20.70
2018-07-26T00:07:45.899Z,20.60
2018-07-26T00:10:14.062Z,20.60
2018-07-26T00:12:42.276Z,20.60
2018-07-26T00:15:10.504Z,20.60
2018-07-26T00:17:38.778Z,20.70
2018-07-26T00:20:07.384Z,20.70
2018-07-26T00:22:35.532Z,20.50
2018-07-26T00:25:03.881Z,20.40
2018-07-26T00:27:32.097Z,20.40
2018-07-26T00:30:00.253Z,20.50
2018-07-26T00:32:28.449Z,20.30
2018-07-26T00:34:56.595Z,20.20
2018-07-26T00:37:24.796Z,20.30
2018-07-26T00:39:52.932Z,20.40
2018-07-26T00:42:27.854Z,20.40
2018-07-26T00:44:56.049Z,20.20
2018-07-26T00:47:24.218Z,20.20
2018-07-26T00:49:52.416Z,20.20
2018-07-26T00:52:20.580Z,20.10
2018-07-26T00:54:48.820Z,19.90
2018-07-26T00:57:16.991Z,19.80
2018-07-26T00:59:45.269Z,19.70
2018-07-26T01:02:13.484Z,19.80
2018-07-26T01:04:41.780Z,19.90
2018-07-26T01:07:10.016Z,19.80
2018-07-26T01:09:38.235Z,19.80
2018-07-26T01:12:06.617Z,19.80
2018-07-26T01:14:34.772Z,19.90
2018-07-26T01:17:03.020Z,19.90
2018-07-26T01:19:31.281Z,19.90
2018-07-26T01:21:59.479Z,19.90
2018-07-26T01:24:27.672Z,19.90
2018-07-26T01:26:55.829Z,20.00
2018-07-26T01:29:24.076Z,20.00
2018-07-26T01:31:54.091Z,20.00
2018-07-26T01:34:23.708Z,19.90
2018-07-26T01:36:52.502Z,19.90
2018-07-26T01:39:20.712Z,19.90
2018-07-26T01:41:49.220Z,19.90
2018-07-26T01:44:20.980Z,19.90
2018-07-26T01:46:49.169Z,19.90
2018-07-26T01:49:17.696Z,19.70
2018-07-26T01:51:45.913Z,19.70
2018-07-26T01:54:14.416Z,19.70
2018-07-26T01:56:42.570Z,19.70
2018-07-26T01:59:10.809Z,19.70
2018-07-26T02:01:39.029Z,19.60
2018-07-26T02:04:07.261Z,19.50
2018-07-26T02:06:35.498Z,19.40
2018-07-26T02:09:06.479Z,19.40
2018-07-26T02:11:34.665Z,19.40
2018-07-26T02:14:34.273Z,19.20
2018-07-26T02:17:02.896Z,19.10
2018-07-26T02:19:31.161Z,19.10
2018-07-26T02:21:59.377Z,19.10
2018-07-26T02:24:27.621Z,19.00
2018-07-26T02:26:55.784Z,19.00
2018-07-26T02:29:23.969Z,18.90
2018-07-26T02:31:52.169Z,18.90
2018-07-26T02:34:20.345Z,18.80
2018-07-26T02:36:48.576Z,18.80
2018-07-26T02:39:16.740Z,18.80
2018-07-26T02:41:44.942Z,18.80
2018-07-26T02:44:13.144Z,18.80
2018-07-26T02:46:41.297Z,18.70
2018-07-26T02:49:09.480Z,18.80
2018-07-26T02:51:37.632Z,18.70
2018-07-26T02:54:05.846Z,18.60
2018-07-26T02:56:34.013Z,18.50
2018-07-26T02:59:02.196Z,18.60
2018-07-26T03:01:30.380Z,18.70
2018-07-26T03:03:58.537Z,18.90
2018-07-26T03:06:26.724Z,19.00
2018-07-26T03:08:54.891Z,19.00
2018-07-26T03:13:51.144Z,19.00
2018-07-26T03:16:19.313Z,19.00
2018-07-26T03:18:47.509Z,19.10
2018-07-26T03:21:15.688Z,19.10
2018-07-26T03:23:43.936Z,19.10
2018-07-26T03:26:12.144Z,19.10
2018-07-26T03:28:40.312Z,19.10
2018-07-26T03:31:08.996Z,19.00
2018-07-26T03:33:37.161Z,19.00
2018-07-26T03:36:05.356Z,18.90
2018-07-26T03:38:33.548Z,18.90
2018-07-26T03:41:01.793Z,18.80
2018-07-26T03:43:29.992Z,18.80
2018-07-26T03:45:58.185Z,18.80
2018-07-26T03:48:26.408Z,18.80
2018-07-26T03:50:54.578Z,18.80
2018-07-26T03:53:22.792Z,18.80
2018-07-26T03:55:51.005Z,18.80
2018-07-26T03:58:19.164Z,18.70
2018-07-26T04:00:47.392Z,18.80
2018-07-26T04:03:15.567Z,18.80
2018-07-26T04:05:43.781Z,18.70
2018-07-26T04:08:11.974Z,18.70
2018-07-26T04:10:40.148Z,18.80
2018-07-26T04:15:36.263Z,18.70
2018-07-26T04:18:05.530Z,18.80
2018-07-26T04:20:34.437Z,18.80
2018-07-26T04:23:02.936Z,18.80
2018-07-26T04:25:32.041Z,18.80
2018-07-26T04:28:00.900Z,18.70
2018-07-26T04:30:29.145Z,18.80
2018-07-26T04:32:57.296Z,18.80
2018-07-26T04:35:25.476Z,18.90
2018-07-26T04:37:53.825Z,18.80
2018-07-26T04:40:22.052Z,18.80
2018-07-26T04:42:50.251Z,18.80
2018-07-26T04:45:18.408Z,18.90
2018-07-26T04:47:46.610Z,19.00
2018-07-26T04:50:14.805Z,19.10
2018-07-26T04:52:43.111Z,19.20
2018-07-26T04:55:11.257Z,19.20
2018-07-26T04:57:39.440Z,19.20
2018-07-26T05:00:07.840Z,19.20
2018-07-26T05:02:36.276Z,19.30
2018-07-26T05:05:05.073Z,19.30
2018-07-26T05:07:33.261Z,19.50
2018-07-26T05:10:01.504Z,19.70
2018-07-26T05:12:29.717Z,19.90
2018-07-26T05:14:57.902Z,20.10
2018-07-26T05:17:26.089Z,20.20
2018-07-26T05:19:54.235Z,20.50
2018-07-26T05:22:22.441Z,20.80
2018-07-26T05:24:50.653Z,21.10
2018-07-26T05:27:18.835Z,21.50
2018-07-26T05:29:47.108Z,21.70
2018-07-26T05:32:15.405Z,22.00
2018-07-26T05:34:43.641Z,22.10
2018-07-26T05:37:11.840Z,22.50
2018-07-26T05:39:39.992Z,22.70
2018-07-26T05:42:08.221Z,22.90
2018-07-26T05:44:36.377Z,22.80
2018-07-26T05:47:04.633Z,23.00
2018-07-26T05:49:32.853Z,23.10
2018-07-26T05:52:01.050Z,23.00
2018-07-26T05:54:29.249Z,23.30
2018-07-26T05:56:57.457Z,23.50
2018-07-26T06:01:53.611Z,23.90
2018-07-26T06:04:21.813Z,24.00
2018-07-26T06:06:49.988Z,24.10
2018-07-26T06:09:18.168Z,24.30
2018-07-26T06:11:46.320Z,24.40
2018-07-26T06:14:14.560Z,24.60
2018-07-26T06:16:42.750Z,24.50
2018-07-26T06:19:10.921Z,24.40
2018-07-26T06:21:39.312Z,24.30
2018-07-26T06:24:07.766Z,24.50
2018-07-26T06:26:36.077Z,24.70
2018-07-26T06:29:04.417Z,24.90
2018-07-26T06:31:32.666Z,24.80
2018-07-26T06:34:00.988Z,25.00
2018-07-26T06:36:29.236Z,25.00
2018-07-26T06:38:57.480Z,25.10
2018-07-26T06:41:25.691Z,25.10
2018-07-26T06:43:53.893Z,25.20
2018-07-26T06:46:22.081Z,25.20
2018-07-26T06:48:50.234Z,25.30
2018-07-26T06:51:18.772Z,25.20
2018-07-26T06:53:46.941Z,25.40
2018-07-26T06:56:15.149Z,25.50
2018-07-26T06:58:43.344Z,25.40
2018-07-26T07:01:11.500Z,25.50
2018-07-26T07:03:39.700Z,25.90
2018-07-26T07:06:07.915Z,26.10
2018-07-26T07:08:36.185Z,26.30
2018-07-26T07:11:04.436Z,26.20
2018-07-26T07:13:32.669Z,26.60
2018-07-26T07:16:00.894Z,26.30
2018-07-26T07:18:29.081Z,26.50
2018-07-26T07:20:57.304Z,26.80
2018-07-26T07:23:25.621Z,26.90
2018-07-26T07:25:53.795Z,27.00
2018-07-26T07:28:22.137Z,27.10
2018-07-26T07:30:50.320Z,27.00
2018-07-26T07:33:18.565Z,26.80
2018-07-26T07:35:46.800Z,26.90
2018-07-26T07:38:15.017Z,26.70
2018-07-26T07:40:43.270Z,26.50
2018-07-26T07:43:11.525Z,26.70
2018-07-26T07:45:39.740Z,27.00
2018-07-26T07:48:07.909Z,27.20
2018-07-26T07:50:36.140Z,26.80
2018-07-26T07:53:04.357Z,26.90
2018-07-26T07:55:32.607Z,27.20
2018-07-26T07:58:00.801Z,27.30
2018-07-26T08:00:28.982Z,27.40
2018-07-26T08:02:57.204Z,27.40
2018-07-26T08:05:25.403Z,27.30
2018-07-26T08:07:53.611Z,26.90
2018-07-26T08:10:21.832Z,26.90
2018-07-26T08:12:50.010Z,27.20
2018-07-26T08:15:18.205Z,27.40
2018-07-26T08:17:46.388Z,27.20
2018-07-26T08:20:14.576Z,27.20
2018-07-26T08:22:42.745Z,27.30
2018-07-26T08:25:10.989Z,27.40
2018-07-26T08:27:39.558Z,27.60
2018-07-26T08:30:09.432Z,27.50
2018-07-26T08:32:37.778Z,27.80
2018-07-26T08:35:05.980Z,27.20
2018-07-26T08:37:34.304Z,27.00
2018-07-26T08:40:03.037Z,27.30
2018-07-26T08:42:31.381Z,27.60
2018-07-26T08:44:59.613Z,27.70
2018-07-26T08:47:27.804Z,27.90
2018-07-26T08:49:56.024Z,27.90
2018-07-26T08:52:24.217Z,27.80
2018-07-26T08:54:52.686Z,27.30
2018-07-26T08:57:20.867Z,27.10
2018-07-26T08:59:49.024Z,27.30
2018-07-26T09:02:17.224Z,27.80
2018-07-26T09:04:45.409Z,28.20
2018-07-26T09:07:13.564Z,28.20
2018-07-26T09:09:41.772Z,28.00
2018-07-26T09:12:10.044Z,27.80
2018-07-26T09:14:38.236Z,27.60
2018-07-26T09:19:34.409Z,27.90
2018-07-26T09:22:02.604Z,28.20
2018-07-26T09:24:30.776Z,28.20
2018-07-26T09:26:59.813Z,28.30
2018-07-26T09:29:28.048Z,28.30
2018-07-26T09:31:56.226Z,28.00
2018-07-26T09:34:24.443Z,27.70
2018-07-26T09:36:52.611Z,27.80
2018-07-26T09:39:20.809Z,28.20
2018-07-26T09:41:49.012Z,28.20
2018-07-26T09:44:17.237Z,28.30
2018-07-26T09:46:45.420Z,28.50
2018-07-26T09:49:13.577Z,28.90
2018-07-26T09:51:41.798Z,29.10
2018-07-26T09:54:09.997Z,29.20
2018-07-26T09:56:38.194Z,29.40
2018-07-26T09:59:06.339Z,29.30
2018-07-26T10:01:35.923Z,29.20
2018-07-26T10:04:04.149Z,28.80
2018-07-26T10:06:32.342Z,28.60
2018-07-26T10:09:00.520Z,28.60
2018-07-26T10:11:28.680Z,28.90
2018-07-26T10:13:56.932Z,28.60
2018-07-26T10:16:25.408Z,28.60
2018-07-26T10:18:53.748Z,28.70
2018-07-26T10:21:21.956Z,29.00
2018-07-26T10:23:50.097Z,29.40
2018-07-26T10:26:18.292Z,29.00
2018-07-26T10:28:46.446Z,28.60
2018-07-26T10:31:14.636Z,29.10
2018-07-26T10:33:42.864Z,28.80
2018-07-26T10:36:11.376Z,28.90
2018-07-26T10:38:39.649Z,29.20
2018-07-26T10:41:07.876Z,29.50
2018-07-26T10:43:36.125Z,29.10
2018-07-26T10:46:04.504Z,28.60
2018-07-26T10:48:32.669Z,28.80
2018-07-26T10:51:00.853Z,29.00
2018-07-26T10:53:29.013Z,29.00
2018-07-26T10:55:57.269Z,28.80
2018-07-26T10:58:25.491Z,28.60
2018-07-26T11:00:53.681Z,28.60
2018-07-26T11:03:22.510Z,29.00
2018-07-26T11:05:50.741Z,28.90
2018-07-26T11:08:19.265Z,29.10
2018-07-26T11:10:47.513Z,29.40
2018-07-26T11:13:15.696Z,29.20
2018-07-26T11:15:43.916Z,29.30
2018-07-26T11:18:12.094Z,29.30
2018-07-26T11:20:40.328Z,29.70
2018-07-26T11:23:08.487Z,29.40
2018-07-26T11:25:36.752Z,29.40
2018-07-26T11:28:05.227Z,29.80
2018-07-26T11:30:33.436Z,30.20
2018-07-26T11:33:01.614Z,30.40
2018-07-26T11:35:29.820Z,30.40
2018-07-26T11:37:58.092Z,30.10
2018-07-26T11:40:26.281Z,29.90
2018-07-26T11:42:54.748Z,29.80
2018-07-26T11:45:22.949Z,29.90
2018-07-26T11:47:51.164Z,30.20
2018-07-26T11:50:19.389Z,30.60
2018-07-26T11:52:47.561Z,30.90
2018-07-26T11:55:15.820Z,30.60
2018-07-26T11:57:44.021Z,30.20
2018-07-26T12:02:40.199Z,31.10
2018-07-26T12:05:08.472Z,31.30
2018-07-26T12:07:36.665Z,31.00
2018-07-26T12:10:05.229Z,30.70
2018-07-26T12:12:33.425Z,30.60
2018-07-26T12:15:01.661Z,30.90
2018-07-26T12:17:29.841Z,30.80
2018-07-26T12:19:58.054Z,31.20
2018-07-26T12:22:26.221Z,31.20
2018-07-26T12:24:54.436Z,31.30
2018-07-26T12:27:22.597Z,31.40
2018-07-26T12:29:50.785Z,31.60
2018-07-26T12:32:18.967Z,31.60
2018-07-26T12:34:47.173Z,32.00
2018-07-26T12:37:15.411Z,31.90
2018-07-26T12:39:43.612Z,31.80
2018-07-26T12:42:11.844Z,31.70
2018-07-26T12:44:40.061Z,31.30
2018-07-26T12:47:08.277Z,30.40
2018-07-26T12:49:36.489Z,30.80
2018-07-26T12:52:04.682Z,30.90
2018-07-26T12:54:32.885Z,31.10
2018-07-26T12:57:01.130Z,30.80
2018-07-26T12:59:29.369Z,30.60
2018-07-26T13:01:57.566Z,30.30
2018-07-26T13:04:25.770Z,30.20
2018-07-26T13:06:54.009Z,30.50
2018-07-26T13:09:22.188Z,30.60
2018-07-26T13:11:50.405Z,30.90
2018-07-26T13:14:18.584Z,31.10
2018-07-26T13:16:46.764Z,31.70
2018-07-26T13:19:14.997Z,31.60
2018-07-26T13:21:43.205Z,31.70
2018-07-26T13:24:11.397Z,31.50
2018-07-26T13:26:39.600Z,30.90
2018-07-26T13:29:07.868Z,30.80
2018-07-26T13:31:36.105Z,30.90
2018-07-26T13:34:04.300Z,30.40
2018-07-26T13:36:32.525Z,29.70
2018-07-26T13:39:00.740Z,30.00
2018-07-26T13:41:28.939Z,30.50
2018-07-26T13:43:57.145Z,30.70
2018-07-26T13:46:25.398Z,30.70
2018-07-26T13:48:53.593Z,31.20
2018-07-26T13:51:21.816Z,31.80
2018-07-26T13:53:49.985Z,32.10
2018-07-26T13:56:18.187Z,32.10
2018-07-26T13:58:46.365Z,31.90
2018-07-26T14:01:14.616Z,31.70
2018-07-26T14:03:42.816Z,31.60
2018-07-26T14:06:10.986Z,30.80
2018-07-26T14:08:39.337Z,30.90
2018-07-26T14:11:07.608Z,31.00
2018-07-26T14:13:35.873Z,30.80
2018-07-26T14:16:04.648Z,30.70
2018-07-26T14:18:33.289Z,30.20
2018-07-26T14:21:01.644Z,30.10
2018-07-26T14:23:35.377Z,30.20
2018-07-26T14:26:04.008Z,30.70
2018-07-26T14:28:32.261Z,30.80
2018-07-26T14:31:31.678Z,30.70
2018-07-26T14:33:59.902Z,30.50
2018-07-26T14:36:28.084Z,30.30
2018-07-26T14:38:56.329Z,30.30
2018-07-26T14:43:52.489Z,30.90
2018-07-26T14:46:20.768Z,30.90
2018-07-26T14:48:48.969Z,30.50
2018-07-26T14:51:17.190Z,30.60
2018-07-26T14:53:45.365Z,30.90
2018-07-26T14:56:13.568Z,30.30
2018-07-26T14:58:41.762Z,30.40
2018-07-26T15:01:09.985Z,30.30
2018-07-26T15:03:38.201Z,30.50
2018-07-26T15:06:06.470Z,30.40
2018-07-26T15:08:34.669Z,30.70
2018-07-26T15:13:30.819Z,30.20
2018-07-26T15:15:59.037Z,30.00
2018-07-26T15:18:27.215Z,29.70
2018-07-26T15:20:56.109Z,29.80
2018-07-26T15:23:24.293Z,30.10
2018-07-26T15:25:52.506Z,30.20
2018-07-26T15:28:20.841Z,30.40
2018-07-26T15:30:49.471Z,30.50
2018-07-26T15:33:17.713Z,30.50
2018-07-26T15:35:45.973Z,30.40
2018-07-26T15:38:14.171Z,29.60
2018-07-26T15:40:42.376Z,29.50
2018-07-26T15:43:10.572Z,29.40
2018-07-26T15:45:38.811Z,29.50
2018-07-26T15:48:06.932Z,29.40
2018-07-26T15:50:35.580Z,29.60
2018-07-26T15:53:03.837Z,29.20
2018-07-26T15:55:32.139Z,29.00
2018-07-26T15:58:00.320Z,29.20
2018-07-26T16:00:28.476Z,28.70
2018-07-26T16:02:56.688Z,28.60
2018-07-26T16:05:24.858Z,28.60
2018-07-26T16:07:53.065Z,28.70
2018-07-26T16:10:21.283Z,28.50
2018-07-26T16:12:49.525Z,28.60
2018-07-26T16:15:17.748Z,28.70
2018-07-26T16:17:45.999Z,28.90
2018-07-26T16:20:14.184Z,29.00
2018-07-26T16:22:42.391Z,28.80
2018-07-26T16:25:10.945Z,28.80
2018-07-26T16:27:39.406Z,28.90
2018-07-26T16:30:10.913Z,28.90
2018-07-26T16:32:39.120Z,28.90
2018-07-26T16:35:07.955Z,29.00
2018-07-26T16:37:36.500Z,29.00
2018-07-26T16:40:05.293Z,29.00
2018-07-26T16:42:33.529Z,28.90
2018-07-26T16:45:02.112Z,28.70
2018-07-26T16:47:30.368Z,28.60
2018-07-26T16:49:58.564Z,28.70
2018-07-26T16:52:26.793Z,28.40
2018-07-26T16:54:54.972Z,28.20
2018-07-26T16:57:23.165Z,28.30
2018-07-26T16:59:51.329Z,28.40
2018-07-26T17:02:19.532Z,28.40
2018-07-26T17:04:47.733Z,28.40
2018-07-26T17:07:15.981Z,28.30
2018-07-26T17:09:44.257Z,28.30
2018-07-26T17:12:12.466Z,28.30
2018-07-26T17:14:40.665Z,28.20
2018-07-26T17:17:08.967Z,28.00
2018-07-26T17:19:37.166Z,28.10
2018-07-26T17:22:05.448Z,28.10
2018-07-26T17:24:33.718Z,27.70
2018-07-26T17:27:02.767Z,27.40
2018-07-26T17:29:30.973Z,27.30
2018-07-26T17:31:59.164Z,27.10
2018-07-26T17:34:27.380Z,27.00
2018-07-26T17:36:55.536Z,27.00
2018-07-26T17:39:23.733Z,26.90
2018-07-26T17:41:51.962Z,26.80
2018-07-26T17:44:20.156Z,26.90
2018-07-26T17:46:48.346Z,26.70
2018-07-26T17:49:16.513Z,26.60
2018-07-26T17:51:44.739Z,26.60
2018-07-26T17:54:12.973Z,26.50
2018-07-26T17:56:41.186Z,26.50
2018-07-26T17:59:09.415Z,26.50
2018-07-26T18:01:37.609Z,26.60
2018-07-26T18:04:05.821Z,26.60
2018-07-26T18:06:34.037Z,26.50
2018-07-26T18:09:02.266Z,26.50
2018-07-26T18:11:30.695Z,26.50
2018-07-26T18:13:58.953Z,26.40
2018-07-26T18:16:27.099Z,26.30
2018-07-26T18:18:55.316Z,26.20
2018-07-26T18:21:23.588Z,26.20
2018-07-26T18:23:51.741Z,26.20
2018-07-26T18:26:20.003Z,26.10
2018-07-26T18:28:48.154Z,26.00
2018-07-26T18:31:16.392Z,26.00
2018-07-26T18:33:44.807Z,25.80
2018-07-26T18:36:13.029Z,25.70
2018-07-26T18:38:41.221Z,25.60
2018-07-26T18:41:09.405Z,25.60
2018-07-26T18:43:37.686Z,25.50
2018-07-26T18:46:05.957Z,25.50
2018-07-26T18:48:34.172Z,25.50
2018-07-26T18:51:02.448Z,25.50
2018-07-26T18:53:30.820Z,25.50
2018-07-26T18:55:59.435Z,25.50
2018-07-26T18:58:27.653Z,25.40
2018-07-26T19:00:56.281Z,25.40
2018-07-26T19:03:24.514Z,25.30
2018-07-26T19:05:53.057Z,25.00
2018-07-26T19:08:21.292Z,24.80
2018-07-26T19:10:49.488Z,24.70
2018-07-26T19:13:17.732Z,24.60
2018-07-26T19:15:46.090Z,24.50
2018-07-26T19:18:15.030Z,24.50
2018-07-26T19:20:43.797Z,24.50
2018-07-26T19:23:12.000Z,24.40
2018-07-26T19:25:41.455Z,24.30
2018-07-26T19:28:09.635Z,24.20
2018-07-26T19:30:37.808Z,24.10
2018-07-26T19:33:06.145Z,24.00
2018-07-26T19:35:34.416Z,24.00
2018-07-26T19:38:02.581Z,24.00
2018-07-26T19:40:30.837Z,24.00
2018-07-26T19:42:59.151Z,23.90
2018-07-26T19:45:27.369Z,23.90
2018-07-26T19:47:56.472Z,24.00
2018-07-26T19:50:24.875Z,23.90
2018-07-26T19:52:53.164Z,23.90
2018-07-26T19:55:23.470Z,23.90
2018-07-26T19:57:51.761Z,23.90
2018-07-26T20:00:20.006Z,24.00
2018-07-26T20:02:48.232Z,23.80
2018-07-26T20:05:16.564Z,23.80
2018-07-26T20:07:44.825Z,23.70
2018-07-26T20:10:13.471Z,23.60
2018-07-26T20:12:41.979Z,23.50
2018-07-26T20:15:10.328Z,23.40
2018-07-26T20:17:38.894Z,23.40
2018-07-26T20:20:09.224Z,23.30
2018-07-26T20:22:37.533Z,23.30
2018-07-26T20:25:06.233Z,23.30
2018-07-26T20:27:34.543Z,23.30
2018-07-26T20:30:03.081Z,23.40
2018-07-26T20:32:31.273Z,23.30
2018-07-26T20:35:00.014Z,23.40
2018-07-26T20:37:28.260Z,23.40
2018-07-26T20:39:56.989Z,23.40
2018-07-26T20:42:25.202Z,23.40
2018-07-26T20:44:53.976Z,23.30
2018-07-26T20:47:22.167Z,23.30
2018-07-26T20:49:50.380Z,23.30
2018-07-26T20:52:18.624Z,23.10
2018-07-26T20:54:46.829Z,23.00
2018-07-26T20:57:15.049Z,22.90
2018-07-26T20:59:43.293Z,22.70
2018-07-26T21:02:11.703Z,22.60
2018-07-26T21:04:39.905Z,22.50
2018-07-26T21:07:08.080Z,22.50
2018-07-26T21:09:36.299Z,22.50
2018-07-26T21:12:04.463Z,22.40
2018-07-26T21:14:32.654Z,22.40
2018-07-26T21:17:00.856Z,22.20
2018-07-26T21:19:29.016Z,22.20
2018-07-26T21:21:57.215Z,22.20
2018-07-26T21:24:25.405Z,22.20
2018-07-26T21:26:53.608Z,22.20
2018-07-26T21:29:21.884Z,22.30
2018-07-26T21:31:50.134Z,22.30
2018-07-26T21:34:18.291Z,22.20
2018-07-26T21:36:46.485Z,22.10
2018-07-26T21:39:14.688Z,22.00
2018-07-26T21:41:42.840Z,21.80
2018-07-26T21:44:11.748Z,21.90
2018-07-26T21:46:39.973Z,21.80
2018-07-26T21:49:08.505Z,21.90
2018-07-26T21:51:37.172Z,21.80
2018-07-26T21:54:05.364Z,21.70
2018-07-26T21:56:33.941Z,21.70
2018-07-26T21:59:02.233Z,21.70
2018-07-26T22:01:30.977Z,21.70
2018-07-26T22:03:59.167Z,21.50
2018-07-26T22:06:27.416Z,21.50
2018-07-26T22:08:55.637Z,21.50
2018-07-26T22:11:23.809Z,21.50
2018-07-26T22:13:52.046Z,21.60
2018-07-26T22:16:20.244Z,21.80
2018-07-26T22:18:48.461Z,21.80
2018-07-26T22:21:16.793Z,21.80
2018-07-26T22:23:44.968Z,21.90
2018-07-26T22:26:13.190Z,21.90
2018-07-26T22:28:41.396Z,22.00
2018-07-26T22:31:09.664Z,21.90
2018-07-26T22:33:37.881Z,21.80
2018-07-26T22:36:06.203Z,21.70
2018-07-26T22:38:34.415Z,21.70
2018-07-26T22:41:02.608Z,21.70
2018-07-26T22:43:30.849Z,21.60
2018-07-26T22:45:59.009Z,21.60
2018-07-26T22:48:27.208Z,21.60
2018-07-26T22:50:55.520Z,21.60
2018-07-26T22:53:23.729Z,21.60
2018-07-26T22:55:51.901Z,21.60
2018-07-26T22:58:20.105Z,21.60
2018-07-26T23:03:19.327Z,21.80
2018-07-26T23:05:47.532Z,21.70
2018-07-26T23:08:15.720Z,21.70
2018-07-26T23:10:43.932Z,21.70
2018-07-26T23:13:12.080Z,21.70
2018-07-26T23:15:40.305Z,21.60
2018-07-26T23:18:08.540Z,21.50
2018-07-26T23:20:36.721Z,21.60
2018-07-26T23:23:05.001Z,21.60
2018-07-26T23:25:33.152Z,21.60
2018-07-26T23:28:01.334Z,21.50
2018-07-26T23:30:29.537Z,21.30
2018-07-26T23:32:57.700Z,21.40
2018-07-26T23:35:25.905Z,21.30
2018-07-26T23:37:54.089Z,21.30
2018-07-26T23:40:22.299Z,21.30
2018-07-26T23:42:50.485Z,21.20
2018-07-26T23:45:18.697Z,21.10
2018-07-26T23:47:46.882Z,21.10
2018-07-26T23:50:15.049Z,21.10
2018-07-26T23:52:43.234Z,21.10
2018-07-26T23:55:11.432Z,21.10
2018-07-26T23:57:39.607Z,21.00
